Time;durP1;ratioP1;P1;durP2;ratioP2;P2;SDS_P1;SDS_P2;PMS_P1;PMS_P2;Temp;Humidity;BMP_temperature;BMP_pressure;BME280_temperature;BME280_humidity;BME280_pressure;Samples;Min_cycle;Max_cycle;Signal;HPM_P1;HPM_P2
2021/09/07 00:01:11;;;;;;;13.20;2.40;;;;;;;11.94;68.94;101001.89;111621;1203;22451;-58
2021/09/07 00:03:40;;;;;;;11.10;2.60;;;;;;;11.93;68.85;101001.21;111741;1204;24089;-55
2021/09/07 00:06:08;;;;;;;11.70;2.30;;;;;;;11.92;68.97;101000.41;111652;1203;25367;-58
2021/09/07 00:08:36;;;;;;;8.20;1.70;;;;;;;11.92;69.12;100998.54;111506;1204;22450;-55
2021/09/07 00:11:04;;;;;;;9.30;1.90;;;;;;;11.92;69.20;100993.66;111569;1203;22450;-57
2021/09/07 00:13:32;;;;;;;9.10;2.40;;;;;;;11.94;69.31;100993.69;111552;1203;22576;-57
2021/09/07 00:16:01;;;;;;;11.10;2.40;;;;;;;11.93;69.26;100991.23;111517;1202;22447;-55
2021/09/07 00:18:29;;;;;;;10.80;2.50;;;;;;;11.92;69.47;100986.16;111526;1203;22558;-58
2021/09/07 00:20:57;;;;;;;10.40;2.20;;;;;;;11.93;69.38;100986.69;111673;1204;25346;-55
2021/09/07 00:23:25;;;;;;;12.10;2.10;;;;;;;11.93;69.49;100986.76;111534;1203;22450;-56
2021/09/07 00:25:54;;;;;;;11.70;2.60;;;;;;;11.93;69.66;100985.33;111508;1203;22553;-57
2021/09/07 00:28:22;;;;;;;10.00;1.90;;;;;;;11.95;69.65;100985.16;111497;1203;22563;-59
2021/09/07 00:30:50;;;;;;;12.10;2.70;;;;;;;11.95;69.76;100986.85;111553;1203;24117;-57
2021/09/07 00:33:18;;;;;;;9.70;2.20;;;;;;;11.94;69.85;100988.33;111580;1203;22463;-56
2021/09/07 00:35:46;;;;;;;11.60;2.50;;;;;;;11.93;69.95;100989.30;111545;1203;22448;-58
2021/09/07 00:38:14;;;;;;;10.20;2.10;;;;;;;11.94;69.92;100993.19;111578;1203;25095;-56
2021/09/07 00:40:42;;;;;;;13.80;2.40;;;;;;;11.95;70.09;100992.29;111573;1203;22447;-55
2021/09/07 00:43:11;;;;;;;10.80;2.20;;;;;;;11.94;70.12;100989.89;111581;1202;22531;-55
2021/09/07 00:45:39;;;;;;;12.90;2.70;;;;;;;11.95;70.07;100991.85;111624;1203;24205;-56
2021/09/07 00:48:08;;;;;;;12.10;2.90;;;;;;;11.96;70.28;100986.71;111523;1203;24118;-56
2021/09/07 00:50:37;;;;;;;16.60;2.80;;;;;;;11.96;70.29;100989.83;111527;1203;24070;-56
2021/09/07 00:53:06;;;;;;;10.70;2.40;;;;;;;11.95;70.33;100984.02;111573;1203;22439;-58
2021/09/07 00:55:34;;;;;;;12.50;2.60;;;;;;;11.97;70.39;100986.50;111704;1203;24134;-57
2021/09/07 00:58:05;;;;;;;11.50;2.40;;;;;;;11.97;70.37;100983.15;111678;1203;26299;-55
2021/09/07 01:00:34;;;;;;;9.60;2.40;;;;;;;11.98;70.53;100981.39;111619;1203;25114;-57
2021/09/07 01:03:04;;;;;;;12.00;2.10;;;;;;;11.99;70.58;100976.89;111527;1206;25283;-57
2021/09/07 01:05:32;;;;;;;11.40;2.80;;;;;;;11.99;70.73;100974.34;111544;1203;25182;-57
2021/09/07 01:08:01;;;;;;;12.60;2.60;;;;;;;11.99;70.78;100969.77;111549;1204;24048;-55
2021/09/07 01:10:29;;;;;;;10.70;2.60;;;;;;;11.99;70.85;100968.48;111626;1206;22438;-57
2021/09/07 01:12:58;;;;;;;11.10;2.70;;;;;;;11.99;70.81;100961.94;111384;1206;22456;-57
2021/09/07 01:15:26;;;;;;;12.40;3.20;;;;;;;11.99;70.72;100960.90;111539;1204;25172;-55
2021/09/07 01:17:54;;;;;;;12.80;2.70;;;;;;;12.00;70.90;100956.66;111586;1203;24069;-58
2021/09/07 01:20:23;;;;;;;12.40;2.70;;;;;;;12.02;70.67;100955.64;111517;1206;22452;-55
2021/09/07 01:22:51;;;;;;;12.10;2.80;;;;;;;12.03;70.62;100957.45;111553;1205;22526;-56
2021/09/07 01:25:19;;;;;;;16.30;2.90;;;;;;;12.04;70.71;100958.40;111578;1203;24102;-54
2021/09/07 01:27:48;;;;;;;10.00;2.80;;;;;;;12.06;70.81;100957.67;111624;1204;22443;-58
2021/09/07 01:30:18;;;;;;;16.20;4.10;;;;;;;12.07;70.90;100952.36;111610;1203;22617;-56
2021/09/07 01:32:46;;;;;;;13.50;2.90;;;;;;;12.08;70.82;100950.07;111681;1205;22456;-57
2021/09/07 01:35:14;;;;;;;12.20;3.20;;;;;;;12.09;70.81;100946.75;111605;1203;24200;-56
2021/09/07 01:37:43;;;;;;;14.60;3.10;;;;;;;12.10;70.86;100947.33;111682;1203;24168;-55
2021/09/07 01:40:12;;;;;;;16.00;3.60;;;;;;;12.11;70.84;100945.62;111652;1205;22717;-56
2021/09/07 01:42:43;;;;;;;13.10;3.00;;;;;;;12.13;70.92;100951.27;111956;1204;22814;-58
2021/09/07 01:45:13;;;;;;;11.80;2.90;;;;;;;12.13;71.11;100956.38;111739;1206;22457;-58
2021/09/07 01:47:42;;;;;;;11.50;2.80;;;;;;;12.14;71.08;100961.33;111816;1203;22460;-57
2021/09/07 01:50:12;;;;;;;11.00;3.00;;;;;;;12.14;71.30;100960.16;111625;1203;25149;-55
2021/09/07 01:52:40;;;;;;;9.80;2.80;;;;;;;12.14;71.22;100962.51;111564;1205;22536;-57
2021/09/07 01:55:10;;;;;;;13.30;2.90;;;;;;;12.14;71.39;100961.84;111615;1203;22523;-58
2021/09/07 01:57:41;;;;;;;9.50;2.50;;;;;;;12.14;71.40;100962.75;111686;1203;25152;-58
2021/09/07 02:00:13;;;;;;;12.30;3.20;;;;;;;12.14;71.54;100959.70;111587;1197;25307;-54
2021/09/07 02:02:41;;;;;;;12.50;3.30;;;;;;;12.14;71.55;100960.97;111624;1205;25154;-57
2021/09/07 02:05:10;;;;;;;13.30;3.30;;;;;;;12.14;71.48;100962.31;111540;1203;22451;-58
2021/09/07 02:07:39;;;;;;;11.70;2.60;;;;;;;12.15;71.68;100961.15;111778;1204;22475;-59
2021/09/07 02:10:09;;;;;;;13.70;3.40;;;;;;;12.15;71.92;100961.15;111496;1205;24242;-56
2021/09/07 02:12:40;;;;;;;12.40;3.10;;;;;;;12.14;71.94;100958.64;111644;1203;22441;-57
2021/09/07 02:15:11;;;;;;;13.00;2.60;;;;;;;12.15;72.03;100958.55;111453;1205;22430;-57
2021/09/07 02:17:39;;;;;;;10.20;3.00;;;;;;;12.15;72.09;100956.98;111566;1205;25392;-56
2021/09/07 02:20:11;;;;;;;11.90;3.00;;;;;;;12.17;72.19;100959.98;111721;1203;22474;-58
2021/09/07 02:22:43;;;;;;;14.00;3.30;;;;;;;12.17;72.36;100957.77;111699;1203;22537;-57
2021/09/07 02:25:12;;;;;;;11.90;2.50;;;;;;;12.18;72.47;100957.85;111610;1204;25521;-55
2021/09/07 02:27:41;;;;;;;12.80;3.10;;;;;;;12.18;72.31;100954.36;111600;1203;25168;-57
2021/09/07 02:30:12;;;;;;;12.60;2.90;;;;;;;12.19;72.45;100949.75;111639;1203;25184;-57
2021/09/07 02:32:41;;;;;;;12.50;3.40;;;;;;;12.20;72.66;100947.83;111686;1203;25141;-58
2021/09/07 02:35:11;;;;;;;11.30;2.80;;;;;;;12.19;72.42;100943.44;111684;1203;24238;-58
2021/09/07 02:37:39;;;;;;;11.60;2.90;;;;;;;12.19;72.59;100942.01;111620;1196;22454;-58
2021/09/07 02:40:10;;;;;;;12.50;2.90;;;;;;;12.18;72.50;100935.83;111479;1203;24882;-57
2021/09/07 02:42:38;;;;;;;12.60;3.40;;;;;;;12.18;72.59;100926.56;111682;1204;24695;-57
2021/09/07 02:45:08;;;;;;;12.20;2.80;;;;;;;12.17;72.66;100921.72;111652;1203;22507;-57
2021/09/07 02:47:40;;;;;;;11.90;3.40;;;;;;;12.16;72.74;100922.86;111697;1203;26246;-55
2021/09/07 02:50:10;;;;;;;18.80;3.60;;;;;;;12.17;72.83;100921.55;111413;1204;22454;-57
2021/09/07 02:52:39;;;;;;;13.10;2.90;;;;;;;12.16;72.90;100918.02;111737;1203;22562;-57
2021/09/07 02:55:09;;;;;;;11.10;3.30;;;;;;;12.16;73.00;100915.05;111472;1203;22453;-58
2021/09/07 02:57:37;;;;;;;13.30;2.90;;;;;;;12.14;73.00;100914.73;111619;1203;24302;-58
2021/09/07 03:00:08;;;;;;;12.50;3.10;;;;;;;12.13;72.89;100916.94;111556;1203;22558;-58
2021/09/07 03:02:36;;;;;;;12.90;3.30;;;;;;;12.14;72.93;100918.44;111758;1203;22542;-59
2021/09/07 03:05:07;;;;;;;12.80;3.00;;;;;;;12.13;72.93;100919.89;111607;1203;22536;-58
2021/09/07 03:07:36;;;;;;;12.90;2.80;;;;;;;12.14;72.96;100918.52;112255;1203;22472;-57
2021/09/07 03:10:06;;;;;;;13.80;3.10;;;;;;;12.14;73.00;100921.17;112035;1203;25265;-57
2021/09/07 03:12:37;;;;;;;12.00;3.30;;;;;;;12.13;73.13;100920.45;111753;1203;22466;-58
2021/09/07 03:15:09;;;;;;;8.60;2.40;;;;;;;12.13;73.15;100917.83;111692;1203;24232;-57
2021/09/07 03:17:37;;;;;;;10.90;3.10;;;;;;;12.12;73.21;100919.23;111840;1203;26110;-57
2021/09/07 03:20:08;;;;;;;15.10;2.90;;;;;;;12.11;73.10;100924.48;111765;1203;25289;-57
2021/09/07 03:22:36;;;;;;;10.60;2.90;;;;;;;12.12;73.34;100920.14;112015;1203;22562;-58
2021/09/07 03:25:06;;;;;;;13.80;3.30;;;;;;;12.11;73.38;100919.63;111926;1203;25165;-58
2021/09/07 03:27:34;;;;;;;13.90;2.90;;;;;;;12.10;73.51;100915.58;112155;1203;25243;-62
2021/09/07 03:30:02;;;;;;;10.50;2.60;;;;;;;12.10;73.44;100913.84;112190;1203;22461;-56
2021/09/07 03:32:30;;;;;;;14.80;2.90;;;;;;;12.09;73.36;100912.20;112206;1203;22445;-58
2021/09/07 03:34:58;;;;;;;12.90;3.20;;;;;;;12.08;73.45;100909.27;112186;1203;24238;-58
2021/09/07 03:37:26;;;;;;;11.60;3.00;;;;;;;12.06;73.43;100912.80;112245;1203;24182;-58
2021/09/07 03:39:54;;;;;;;11.90;3.10;;;;;;;12.04;73.64;100910.57;112238;1203;24105;-58
2021/09/07 03:42:23;;;;;;;14.90;4.00;;;;;;;12.05;73.62;100913.64;112127;1203;22464;-58
2021/09/07 03:44:53;;;;;;;13.50;3.00;;;;;;;12.05;73.64;100916.29;112180;1203;22453;-55
2021/09/07 03:47:21;;;;;;;14.60;3.60;;;;;;;12.06;73.64;100921.04;112215;1203;24214;-58
2021/09/07 03:49:49;;;;;;;11.20;3.20;;;;;;;12.06;73.68;100923.77;112158;1203;22670;-58
2021/09/07 03:52:17;;;;;;;15.80;3.60;;;;;;;12.06;73.80;100928.66;112183;1203;25208;-59
2021/09/07 03:54:45;;;;;;;14.50;3.60;;;;;;;12.05;73.84;100927.17;112273;1203;22463;-56
2021/09/07 03:57:14;;;;;;;11.70;3.10;;;;;;;12.03;73.79;100927.34;112259;1203;22399;-58
2021/09/07 03:59:41;;;;;;;11.50;3.10;;;;;;;12.02;74.05;100927.55;112098;1203;25256;-58
2021/09/07 04:02:10;;;;;;;12.50;3.80;;;;;;;12.00;73.96;100930.86;112175;1203;22796;-54
2021/09/07 04:04:38;;;;;;;12.40;3.50;;;;;;;11.98;74.00;100933.52;112304;1203;26023;-57
2021/09/07 04:07:06;;;;;;;10.90;3.30;;;;;;;11.97;73.94;100932.86;112086;1202;22454;-64
2021/09/07 04:09:34;;;;;;;15.30;3.80;;;;;;;11.96;74.08;100925.52;112210;1203;22454;-59
2021/09/07 04:12:03;;;;;;;18.20;3.90;;;;;;;11.96;74.06;100924.98;112171;1203;23120;-59
2021/09/07 04:14:31;;;;;;;15.70;3.90;;;;;;;11.96;74.01;100923.54;112285;1203;22438;-57
2021/09/07 04:17:01;;;;;;;15.30;4.00;;;;;;;11.95;74.12;100925.09;112110;1203;22478;-59
2021/09/07 04:19:30;;;;;;;11.80;4.20;;;;;;;11.95;74.13;100921.21;111856;1203;25150;-63
2021/09/07 04:21:59;;;;;;;14.70;4.20;;;;;;;11.94;74.11;100923.73;112080;1203;22472;-57
2021/09/07 04:24:28;;;;;;;13.30;3.70;;;;;;;11.94;74.12;100917.58;112327;1202;22454;-59
2021/09/07 04:26:58;;;;;;;16.60;3.60;;;;;;;11.95;74.14;100918.73;112427;1203;22460;-58
2021/09/07 04:29:26;;;;;;;16.10;3.30;;;;;;;11.95;74.21;100919.03;112170;1203;24169;-58
2021/09/07 04:31:54;;;;;;;12.00;3.20;;;;;;;11.95;74.34;100922.95;112180;1203;25538;-58
2021/09/07 04:34:24;;;;;;;13.70;3.40;;;;;;;11.95;74.37;100929.02;112612;1203;24661;-58
2021/09/07 04:36:52;;;;;;;18.90;4.00;;;;;;;11.94;74.61;100928.08;112394;1203;22408;-60
2021/09/07 04:39:20;;;;;;;13.70;4.10;;;;;;;11.95;74.57;100928.92;112182;1203;24136;-57
2021/09/07 04:41:48;;;;;;;15.00;3.60;;;;;;;11.96;74.48;100932.33;112177;1203;22559;-58
2021/09/07 04:44:19;;;;;;;14.60;3.40;;;;;;;11.96;74.55;100936.75;112269;1202;23011;-58
2021/09/07 04:46:48;;;;;;;11.80;3.30;;;;;;;11.96;74.70;100942.16;112192;1202;22544;-60
2021/09/07 04:49:20;;;;;;;11.70;3.00;;;;;;;11.97;74.62;100945.58;112203;1203;22451;-57
2021/09/07 04:51:48;;;;;;;11.80;3.60;;;;;;;11.96;74.65;100945.27;112285;1203;24093;-60
2021/09/07 04:54:17;;;;;;;15.60;3.80;;;;;;;11.95;74.74;100946.91;112311;1202;22503;-59
2021/09/07 04:56:45;;;;;;;15.90;3.00;;;;;;;11.96;74.79;100950.30;112318;1203;22460;-62
2021/09/07 04:59:13;;;;;;;17.40;4.20;;;;;;;11.97;74.85;100952.35;112297;1202;22447;-58
2021/09/07 05:01:41;;;;;;;15.30;3.40;;;;;;;11.98;75.05;100954.23;112422;1203;24419;-57
2021/09/07 05:04:09;;;;;;;17.70;4.40;;;;;;;12.00;75.10;100954.73;112247;1203;22447;-59
2021/09/07 05:06:37;;;;;;;18.00;3.40;;;;;;;12.01;75.22;100953.92;112386;1203;22451;-56
2021/09/07 05:09:05;;;;;;;15.50;4.00;;;;;;;12.03;75.23;100954.70;112377;1203;24983;-54
2021/09/07 05:11:33;;;;;;;19.40;4.90;;;;;;;12.05;75.48;100956.38;112194;1202;25093;-59
2021/09/07 05:14:01;;;;;;;19.20;4.20;;;;;;;12.07;75.47;100957.55;112143;1203;26336;-57
2021/09/07 05:16:31;;;;;;;17.60;4.20;;;;;;;12.10;75.48;100957.56;112891;1203;22993;-58
2021/09/07 05:18:59;;;;;;;11.90;3.60;;;;;;;12.13;75.74;100960.80;112334;1203;22410;-56
2021/09/07 05:21:29;;;;;;;17.30;4.20;;;;;;;12.15;75.79;100956.20;112300;1203;22562;-57
2021/09/07 05:23:57;;;;;;;14.00;3.60;;;;;;;12.18;75.66;100958.12;112420;1203;22510;-57
2021/09/07 05:26:27;;;;;;;16.40;4.30;;;;;;;12.23;75.74;100957.70;112342;1203;23757;-57
2021/09/07 05:28:55;;;;;;;14.30;4.30;;;;;;;12.24;75.84;100951.84;112357;1203;22523;-56
2021/09/07 05:31:23;;;;;;;17.30;4.70;;;;;;;12.26;76.04;100959.84;112224;1203;22436;-56
2021/09/07 05:33:51;;;;;;;19.60;5.70;;;;;;;12.29;76.03;100959.84;112257;1203;22456;-56
2021/09/07 05:36:19;;;;;;;25.10;6.80;;;;;;;12.32;76.29;100964.39;112143;1203;25852;-54
2021/09/07 05:38:48;;;;;;;17.40;5.60;;;;;;;12.36;76.09;100957.61;112206;1203;24069;-53
2021/09/07 05:41:16;;;;;;;18.50;5.20;;;;;;;12.40;76.16;100959.14;112388;1203;22372;-59
2021/09/07 05:43:45;;;;;;;18.40;5.40;;;;;;;12.45;76.16;100959.41;112353;1201;23215;-56
2021/09/07 05:46:13;;;;;;;21.90;5.20;;;;;;;12.50;76.31;100956.57;112345;1203;22377;-55
2021/09/07 05:48:41;;;;;;;23.10;4.70;;;;;;;12.56;76.06;100957.67;112393;1202;25204;-55
2021/09/07 05:51:09;;;;;;;20.80;5.30;;;;;;;12.62;76.17;100963.95;112362;1203;26337;-58
2021/09/07 05:53:39;;;;;;;18.50;5.50;;;;;;;12.68;76.12;100964.88;112160;1203;22429;-57
2021/09/07 05:56:10;;;;;;;17.30;5.90;;;;;;;12.75;76.47;100966.85;112449;1203;26678;-55
2021/09/07 05:58:39;;;;;;;20.50;5.80;;;;;;;12.83;76.58;100966.70;112345;1203;22549;-57
2021/09/07 06:01:10;;;;;;;21.10;6.30;;;;;;;12.90;76.66;100970.33;113833;1203;25078;-60
2021/09/07 06:03:38;;;;;;;22.50;6.10;;;;;;;12.97;76.68;100971.70;112402;1203;25138;-56
2021/09/07 06:06:08;;;;;;;22.00;6.30;;;;;;;13.06;76.93;100972.21;112265;1202;24848;-55
2021/09/07 06:08:39;;;;;;;19.10;6.00;;;;;;;13.13;77.12;100977.10;112341;1203;22508;-55
2021/09/07 06:11:09;;;;;;;19.00;5.70;;;;;;;13.20;77.16;100977.05;112532;1203;25316;-58
2021/09/07 06:13:37;;;;;;;21.50;6.50;;;;;;;13.26;77.43;100973.80;112374;1203;24167;-54
2021/09/07 06:16:06;;;;;;;19.90;7.10;;;;;;;13.33;77.37;100978.89;112371;1203;22451;-55
2021/09/07 06:18:34;;;;;;;22.50;7.10;;;;;;;13.40;77.45;100979.27;112376;1203;22442;-56
2021/09/07 06:21:03;;;;;;;25.10;8.30;;;;;;;13.48;77.51;100982.95;112261;1203;22451;-58
2021/09/07 06:23:31;;;;;;;25.80;8.20;;;;;;;13.56;77.54;100977.33;115849;1203;22336;-58
2021/09/07 06:26:00;;;;;;;24.80;9.20;;;;;;;13.62;77.52;100979.70;115906;1203;22677;-58
2021/09/07 06:28:28;;;;;;;20.60;8.20;;;;;;;13.70;77.55;100985.05;113595;1203;22451;-58
2021/09/07 06:30:57;;;;;;;23.30;8.40;;;;;;;13.78;77.50;100980.59;112381;1203;22485;-57
2021/09/07 06:33:25;;;;;;;27.20;8.30;;;;;;;13.88;77.52;100980.80;112408;1203;22471;-57
2021/09/07 06:35:53;;;;;;;21.70;7.40;;;;;;;13.97;77.66;100984.64;112348;1203;22781;-56
2021/09/07 06:38:21;;;;;;;18.60;7.20;;;;;;;14.06;77.76;100985.41;112465;1203;22532;-55
2021/09/07 06:40:49;;;;;;;23.20;7.20;;;;;;;14.16;77.82;100984.61;112393;1203;26869;-57
2021/09/07 06:43:18;;;;;;;25.70;8.00;;;;;;;14.25;77.63;100987.66;112522;1203;22452;-59
2021/09/07 06:45:46;;;;;;;24.40;8.40;;;;;;;14.36;77.84;100987.61;112431;1203;22377;-56
2021/09/07 06:48:15;;;;;;;21.10;7.90;;;;;;;14.47;77.85;100984.93;112429;1202;23955;-59
2021/09/07 06:50:44;;;;;;;21.00;7.90;;;;;;;14.61;77.87;100990.25;112365;1203;22491;-58
2021/09/07 06:53:12;;;;;;;20.10;8.10;;;;;;;14.74;78.01;100993.09;112315;1203;26340;-55
2021/09/07 06:55:43;;;;;;;22.80;8.60;;;;;;;14.87;78.02;100995.71;112482;1203;22515;-58
2021/09/07 06:58:11;;;;;;;21.20;7.50;;;;;;;15.00;78.19;100997.98;112401;1203;25381;-58
2021/09/07 07:00:39;;;;;;;23.70;9.10;;;;;;;15.16;78.11;100999.81;112376;1203;25454;-57
2021/09/07 07:03:07;;;;;;;21.90;9.10;;;;;;;15.31;78.02;101001.33;112334;1203;22457;-55
2021/09/07 07:05:35;;;;;;;20.40;8.80;;;;;;;15.48;77.92;101006.33;112271;1203;22892;-57
2021/09/07 07:08:05;;;;;;;23.00;9.40;;;;;;;15.64;77.72;101010.90;112313;1203;25090;-58
2021/09/07 07:10:33;;;;;;;22.20;9.40;;;;;;;15.80;77.70;101002.30;112428;1203;24265;-54
2021/09/07 07:13:03;;;;;;;28.10;10.10;;;;;;;15.99;77.70;101002.48;112317;1203;22504;-57
2021/09/07 07:15:31;;;;;;;21.90;9.40;;;;;;;16.20;77.38;101002.57;112544;1203;22441;-55
2021/09/07 07:17:59;;;;;;;23.00;10.30;;;;;;;16.41;77.04;101001.71;112309;1203;25077;-58
2021/09/07 07:20:28;;;;;;;27.40;11.30;;;;;;;16.61;76.76;101003.83;112400;1203;26396;-60
2021/09/07 07:22:56;;;;;;;27.70;11.70;;;;;;;16.78;76.25;101005.06;112433;1203;22467;-59
2021/09/07 07:25:25;;;;;;;25.40;10.80;;;;;;;16.92;75.46;101006.36;112380;1203;24119;-55
2021/09/07 07:27:53;;;;;;;23.90;9.20;;;;;;;17.03;75.27;101009.91;112287;1203;25365;-57
2021/09/07 07:30:22;;;;;;;23.90;11.10;;;;;;;17.13;74.94;101013.77;112308;1203;22460;-56
2021/09/07 07:32:50;;;;;;;22.80;10.80;;;;;;;17.24;74.79;101017.70;112319;1203;22475;-56
2021/09/07 07:35:26;;;;;;;25.90;11.00;;;;;;;17.34;74.52;101020.77;112480;1203;23830;-59
2021/09/07 07:37:54;;;;;;;23.40;9.90;;;;;;;17.44;74.30;101016.44;112510;1203;22467;-57
2021/09/07 07:40:24;;;;;;;24.50;10.20;;;;;;;17.52;73.96;101017.54;112414;1203;22372;-54
2021/09/07 07:42:54;;;;;;;24.50;9.30;;;;;;;17.58;73.08;101021.65;112328;1203;25088;-57
2021/09/07 07:45:23;;;;;;;25.00;10.90;;;;;;;17.61;73.07;101024.68;112216;1203;22608;-57
2021/09/07 07:47:52;;;;;;;28.90;11.40;;;;;;;17.63;72.90;101027.73;112460;1203;22484;-56
2021/09/07 07:50:20;;;;;;;23.50;10.50;;;;;;;17.65;72.81;101030.05;112299;1203;22434;-59
2021/09/07 07:52:48;;;;;;;25.10;11.30;;;;;;;17.68;72.85;101030.42;112290;1203;24113;-58
2021/09/07 07:55:17;;;;;;;26.80;10.10;;;;;;;17.70;72.59;101032.13;112236;1203;25224;-58
2021/09/07 07:57:46;;;;;;;31.60;11.50;;;;;;;17.73;72.52;101029.39;112260;1203;22378;-57
2021/09/07 08:00:15;;;;;;;23.90;10.30;;;;;;;17.75;72.33;101031.77;112274;1203;22455;-57
2021/09/07 08:02:44;;;;;;;23.80;10.40;;;;;;;17.75;72.01;101032.58;112305;1203;22475;-56
2021/09/07 08:05:13;;;;;;;25.60;10.30;;;;;;;17.77;71.85;101035.83;112251;1203;25092;-60
2021/09/07 08:07:41;;;;;;;29.50;11.00;;;;;;;17.78;71.66;101033.63;112456;1203;22449;-55
2021/09/07 08:10:12;;;;;;;20.40;9.10;;;;;;;17.80;71.41;101036.50;112234;1203;24232;-58
2021/09/07 08:12:44;;;;;;;23.50;10.50;;;;;;;17.82;71.01;101038.67;112313;1203;22445;-58
2021/09/07 08:15:12;;;;;;;;;;;;;;;17.85;70.60;101037.17;112267;1203;22659;-60
2021/09/07 08:17:41;;;;;;;24.80;10.50;;;;;;;17.90;70.88;101034.52;112260;1203;22511;-58
2021/09/07 08:20:11;;;;;;;25.30;10.20;;;;;;;17.99;70.65;101035.24;112399;1203;24024;-55
2021/09/07 08:22:41;;;;;;;23.30;10.50;;;;;;;18.10;70.40;101038.05;112287;1203;22591;-57
2021/09/07 08:25:11;;;;;;;25.70;10.80;;;;;;;18.22;70.08;101039.19;112212;1203;22428;-58
2021/09/07 08:27:40;;;;;;;24.20;10.10;;;;;;;18.33;69.90;101043.80;112067;1203;22438;-60
2021/09/07 08:30:11;;;;;;;24.70;10.60;;;;;;;18.42;69.70;101045.16;112232;1203;22451;-58
2021/09/07 08:32:41;;;;;;;26.30;11.60;;;;;;;18.52;69.37;101042.64;112248;1203;22437;-59
2021/09/07 08:35:13;;;;;;;22.70;9.80;;;;;;;18.60;69.07;101044.80;112358;1203;22494;-58
2021/09/07 08:37:42;;;;;;;25.80;10.70;;;;;;;18.69;68.87;101046.02;112464;1203;25096;-58
2021/09/07 08:40:12;;;;;;;20.90;9.50;;;;;;;18.78;68.60;101048.18;112560;1203;22434;-58
2021/09/07 08:42:40;;;;;;;21.40;9.90;;;;;;;18.85;67.92;101052.48;112361;1203;22637;-58
2021/09/07 08:45:13;;;;;;;23.60;9.30;;;;;;;18.89;67.66;101052.17;112277;1203;22458;-56
2021/09/07 08:47:42;;;;;;;22.80;8.70;;;;;;;18.93;68.12;101053.95;112384;1203;22449;-55
2021/09/07 08:50:13;;;;;;;23.20;8.90;;;;;;;18.99;67.94;101048.14;112328;1203;25210;-57
2021/09/07 08:52:42;;;;;;;23.30;9.50;;;;;;;19.04;67.77;101049.09;112440;1203;24089;-58
2021/09/07 08:55:12;;;;;;;20.10;9.00;;;;;;;19.08;67.81;101051.05;112378;1202;22560;-58
2021/09/07 08:57:40;;;;;;;22.70;9.00;;;;;;;19.16;67.67;101051.08;112369;1203;23678;-58
2021/09/07 09:00:11;;;;;;;23.30;9.50;;;;;;;19.25;67.44;101053.77;112418;1203;22538;-59
2021/09/07 09:02:45;;;;;;;21.50;8.70;;;;;;;19.30;66.35;101054.36;112421;1203;22467;-59
2021/09/07 09:05:23;;;;;;;19.60;8.60;;;;;;;19.34;66.46;101051.85;112209;1203;24101;-57
2021/09/07 09:07:51;;;;;;;21.00;8.40;;;;;;;19.39;66.68;101053.90;112257;1203;22460;-58
2021/09/07 09:10:21;;;;;;;20.40;8.90;;;;;;;19.44;66.12;101059.95;112276;1203;24128;-60
2021/09/07 09:13:03;;;;;;;19.80;7.20;;;;;;;19.47;65.32;101060.92;112252;1203;25198;-58
2021/09/07 09:15:32;;;;;;;21.30;8.80;;;;;;;19.50;65.62;101063.68;112269;1203;24133;-57
2021/09/07 09:18:06;;;;;;;23.90;9.60;;;;;;;19.55;65.89;101060.44;112348;1203;22441;-58
2021/09/07 09:20:34;;;;;;;20.80;7.80;;;;;;;19.59;64.93;101065.81;112200;1203;25128;-58
2021/09/07 09:23:04;;;;;;;22.00;8.50;;;;;;;19.60;64.58;101062.40;112321;1203;22447;-57
2021/09/07 09:25:36;;;;;;;18.30;7.10;;;;;;;19.62;64.55;101064.46;112317;1203;24186;-60
2021/09/07 09:28:25;;;;;;;19.60;8.40;;;;;;;19.66;64.12;101068.71;112746;1203;26523;-59
2021/09/07 09:30:56;;;;;;;19.50;7.60;;;;;;;19.71;64.02;101070.70;112467;1203;24066;-58
2021/09/07 09:33:26;;;;;;;18.90;7.30;;;;;;;19.77;63.97;101067.20;112451;1202;25059;-58
2021/09/07 09:35:58;;;;;;;17.50;7.30;;;;;;;19.84;63.78;101067.95;112392;1203;22442;-60
2021/09/07 09:38:29;;;;;;;19.50;7.50;;;;;;;19.90;63.52;101063.99;112399;1204;22555;-61
2021/09/07 09:41:01;;;;;;;18.00;7.20;;;;;;;19.96;62.62;101060.77;112419;1198;25421;-58
2021/09/07 09:43:37;;;;;;;19.70;7.60;;;;;;;20.01;62.61;101062.53;112633;1203;22452;-60
2021/09/07 09:46:24;;;;;;;20.10;7.70;;;;;;;20.10;62.97;101062.27;112293;1203;24188;-57
2021/09/07 09:49:15;;;;;;;19.40;7.50;;;;;;;20.22;62.84;101063.14;112379;1203;22533;-58
2021/09/07 09:51:44;;;;;;;20.70;8.00;;;;;;;20.32;62.38;101061.48;112366;1203;25224;-61
2021/09/07 09:54:12;;;;;;;16.70;7.60;;;;;;;20.37;61.99;101064.22;112361;1204;24766;-59
2021/09/07 09:56:41;;;;;;;21.10;7.90;;;;;;;20.39;61.88;101063.89;112373;1203;26383;-55
2021/09/07 09:59:09;;;;;;;21.00;8.40;;;;;;;20.43;61.65;101062.46;112322;1203;26340;-60
2021/09/07 10:01:40;;;;;;;19.20;8.10;;;;;;;20.49;61.98;101052.77;112272;1203;22445;-59
2021/09/07 10:04:11;;;;;;;17.30;7.10;;;;;;;20.58;61.40;101051.60;112400;1203;22528;-56
2021/09/07 10:06:42;;;;;;;19.00;8.00;;;;;;;20.68;61.60;101045.38;112530;1204;22446;-59
2021/09/07 10:09:15;;;;;;;20.60;7.60;;;;;;;20.79;61.24;101049.55;112390;1203;22354;-56
2021/09/07 10:11:50;;;;;;;19.60;8.70;;;;;;;20.88;61.19;101048.89;112275;1203;22473;-60
2021/09/07 10:14:22;;;;;;;20.60;7.60;;;;;;;20.95;61.22;101049.29;112211;1203;22465;-59
2021/09/07 10:17:26;;;;;;;16.80;7.90;;;;;;;21.01;61.01;101052.86;112716;1203;24106;-58
2021/09/07 10:20:11;;;;;;;19.60;8.20;;;;;;;21.08;60.77;101049.84;112386;1203;22482;-59
2021/09/07 10:25:48;;;;;;;19.20;7.00;;;;;;;21.14;58.96;101049.06;112317;1203;22533;-58
2021/09/07 10:28:31;;;;;;;18.20;7.50;;;;;;;21.12;58.76;101046.04;112417;1203;22448;-60
2021/09/07 10:31:03;;;;;;;16.80;6.80;;;;;;;21.11;58.88;101046.50;112455;1203;22889;-60
2021/09/07 10:33:40;;;;;;;17.10;6.60;;;;;;;21.10;58.61;101050.23;112529;1203;22522;-58
2021/09/07 10:36:14;;;;;;;15.90;6.80;;;;;;;21.10;58.61;101051.59;112424;1203;24135;-59
2021/09/07 10:38:49;;;;;;;15.50;6.60;;;;;;;21.12;58.36;101050.73;112430;1202;24107;-58
2021/09/07 10:41:53;;;;;;;17.90;6.70;;;;;;;21.11;57.98;101054.98;112384;1203;24273;-59
2021/09/07 10:44:33;;;;;;;14.80;6.20;;;;;;;21.08;58.10;101056.30;112089;1205;22453;-59
2021/09/07 10:47:06;;;;;;;16.90;5.70;;;;;;;20.99;57.66;101058.74;112093;1206;24111;-61
2021/09/07 10:49:50;;;;;;;19.50;6.00;;;;;;;20.90;57.39;101055.33;112279;1206;24111;-58
2021/09/07 10:52:23;;;;;;;16.90;5.50;;;;;;;20.81;56.87;101059.03;112146;1206;22430;-59
2021/09/07 10:55:06;;;;;;;14.30;4.60;;;;;;;20.77;56.70;101058.48;112151;1206;22471;-59
2021/09/07 10:57:57;;;;;;;13.30;4.30;;;;;;;20.74;55.78;101060.54;112156;1206;22538;-58
2021/09/07 11:00:36;;;;;;;11.60;4.30;;;;;;;20.66;55.30;101060.35;111969;1208;22446;-58
2021/09/07 11:03:26;;;;;;;11.30;4.10;;;;;;;20.62;54.49;101065.70;112124;1206;25444;-59
2021/09/07 11:05:55;;;;;;;13.40;4.80;;;;;;;20.56;54.44;101062.20;112170;1206;24056;-59
2021/09/07 11:08:45;;;;;;;11.70;4.30;;;;;;;20.51;54.59;101062.65;112263;1206;23188;-59
2021/09/07 11:11:28;;;;;;;13.80;4.70;;;;;;;20.52;54.65;101060.44;112051;1206;22663;-59
2021/09/07 11:14:12;;;;;;;16.50;4.90;;;;;;;20.54;54.26;101060.56;112194;1206;22871;-59
2021/09/07 11:16:53;;;;;;;17.40;4.70;;;;;;;20.58;54.32;101062.27;112092;1207;22756;-60
2021/09/07 11:19:24;;;;;;;11.30;4.30;;;;;;;20.63;54.16;101065.60;112095;1206;23749;-59
2021/09/07 11:21:52;;;;;;;17.80;6.60;;;;;;;20.66;53.42;101064.08;112319;1204;22640;-58
2021/09/07 11:24:25;;;;;;;17.50;5.70;;;;;;;20.69;53.85;101065.48;112475;1203;23068;-60
2021/09/07 11:27:20;;;;;;;15.20;4.50;;;;;;;20.75;53.68;101061.77;112412;1205;22554;-61